This is the latest recevied weather packets stored in our database for station/object SP9KB-13. If no packets are shown the sender has not sent any weather packets the latest 1 day(s).
| Time | Temp. | Humidity | Pressure | Rain* | Wind** | Luminosity | Snow |
|---|---|---|---|---|---|---|---|
| 1778008040 | 13.33° C | 60% | 991.5 hPa | 0 mm | 0.45 m/s, 233° | - | - |
| 1778007739 | 13.33° C | 59% | 991.5 hPa | 0 mm | 0.45 m/s, 225° | - | - |
| 1778007439 | 13.89° C | 58% | 991.4 hPa | 0 mm | 0.45 m/s, 228° | - | - |
| 1778007138 | 14.44° C | 58% | 991.4 hPa | 0 mm | 0.45 m/s, 218° | - | - |
| 1778006838 | 14.44° C | 54% | 991.5 hPa | 0 mm | 0.45 m/s, 218° | - | - |
| 1778006537 | 15.56° C | 53% | 991.1 hPa | 0 mm | 0 m/s | - | - |
| 1778006237 | 16.11° C | 49% | 991.4 hPa | 0 mm | 0.45 m/s, 226° | - | - |
| 1778005936 | 16.11° C | 49% | 991.3 hPa | 0 mm | 0 m/s | - | - |
| 1778005635 | 16.67° C | 46% | 991.3 hPa | 0 mm | 0 m/s | - | - |
| 1778005335 | 16.67° C | 44% | 991.3 hPa | 0 mm | 0 m/s | - | - |
| 1778005034 | 16.67° C | 43% | 991.1 hPa | 0 mm | 0 m/s | - | - |
| 1778004734 | 17.22° C | 46% | 991.2 hPa | 0 mm | 0 m/s | - | - |
| 1778004433 | 18.33° C | 39% | 991 hPa | 0 mm | 0.45 m/s, 205° | - | - |
| 1778004133 | 18.89° C | 39% | 991.1 hPa | 0 mm | 0 m/s | - | - |
| 1778003832 | 18.89° C | 39% | 991.1 hPa | 0 mm | 0.45 m/s, 228° | - | - |
| 1778003535 | 19.44° C | 37% | 991.1 hPa | 0 mm | 0 m/s | - | - |
| 1778003231 | 19.44° C | 42% | 990.8 hPa | 0 mm | 0 m/s | - | - |
| 1778002931 | 19.44° C | 38% | 991 hPa | 0 mm | 0 m/s | - | - |
| 1778002628 | 20° C | 37% | 991.2 hPa | 0 mm | 0 m/s | - | - |
| 1778002327 | 20.56° C | 36% | 991.1 hPa | 0 mm | 0.45 m/s, 240° | - | - |
| 1778002027 | 20.56° C | 35% | 991.1 hPa | 0 mm | 0.45 m/s, 212° | - | - |
| 1778001726 | 20.56° C | 37% | 991 hPa | 0 mm | 0 m/s | - | - |
| 1778001425 | 20.56° C | 36% | 991 hPa | 0 mm | 0.45 m/s, 225° | - | - |
| 1778001125 | 21.11° C | 34% | 991.2 hPa | 0 mm | 0 m/s | - | - |
| 1778000824 | 21.67° C | 34% | 991.1 hPa | 0 mm | 0.45 m/s, 187° | - | - |
* Rain latest hour (hover to see other rain measurements)
** Current wind speed in m/s (hover to see current wind gust speed)